Time;durP1;ratioP1;P1;durP2;ratioP2;P2;SDS_P1;SDS_P2;PMS_P1;PMS_P2;Temp;Humidity;BMP_temperature;BMP_pressure;BME280_temperature;BME280_humidity;BME280_pressure;Samples;Min_cycle;Max_cycle;Signal;HPM_P1;HPM_P2
2020/12/25 00:00:14;;;;;;;13.93;6.72;;;15.60;76.20;;;;;;5054389;28;20457;-64
2020/12/25 00:02:39;;;;;;;15.35;7.28;;;15.60;76.20;;;;;;5053132;28;20032;-64
2020/12/25 00:05:05;;;;;;;13.82;6.68;;;15.60;76.00;;;;;;5054465;28;20087;-67
2020/12/25 00:07:31;;;;;;;13.82;6.70;;;15.60;76.20;;;;;;5053670;28;20053;-67
2020/12/25 00:09:56;;;;;;;14.00;6.68;;;15.60;76.30;;;;;;5054361;28;20041;-65
2020/12/25 00:12:22;;;;;;;15.60;7.55;;;15.60;76.30;;;;;;5054308;28;20108;-67
2020/12/25 00:14:48;;;;;;;13.90;7.45;;;15.60;76.20;;;;;;5054422;28;20025;-67
2020/12/25 00:17:13;;;;;;;15.02;7.10;;;15.50;76.40;;;;;;5054375;28;20041;-66
2020/12/25 00:19:39;;;;;;;14.77;7.22;;;15.50;76.30;;;;;;5054102;28;20327;-65
2020/12/25 00:22:05;;;;;;;12.77;7.57;;;15.50;76.60;;;;;;5054445;28;20132;-64
2020/12/25 00:24:30;;;;;;;14.32;6.45;;;15.50;76.80;;;;;;5054361;28;20053;-66
2020/12/25 00:26:56;;;;;;;17.23;6.45;;;15.50;76.70;;;;;;5054206;28;20048;-68
2020/12/25 00:29:22;;;;;;;13.27;6.70;;;15.60;76.60;;;;;;5053894;28;20425;-67
2020/12/25 00:31:47;;;;;;;11.65;6.63;;;15.60;76.60;;;;;;5054318;28;20025;-65
2020/12/25 00:34:13;;;;;;;12.90;6.82;;;15.60;76.30;;;;;;5054037;28;20492;-72
2020/12/25 00:36:40;;;;;;;14.50;7.00;;;15.60;76.50;;;;;;5053986;28;20048;-71
2020/12/25 00:39:11;;;;;;;12.57;7.15;;;15.60;76.60;;;;;;5053895;28;20025;-72
2020/12/25 00:41:55;;;;;;;15.55;7.07;;;15.60;77.00;;;;;;5053885;28;20029;-69
2020/12/25 00:44:20;;;;;;;12.77;7.28;;;15.60;77.40;;;;;;5052471;28;20029;-66
2020/12/25 00:46:48;;;;;;;11.88;6.53;;;15.50;77.60;;;;;;5052409;28;20451;-66
2020/12/25 00:49:13;;;;;;;14.35;6.50;;;15.50;77.50;;;;;;5053716;28;20045;-67
2020/12/25 00:51:39;;;;;;;11.00;5.60;;;15.50;78.10;;;;;;5053864;28;20072;-66
2020/12/25 00:54:05;;;;;;;11.23;5.05;;;15.40;77.20;;;;;;5053515;28;20108;-65
2020/12/25 00:56:31;;;;;;;14.13;5.22;;;15.40;77.10;;;;;;5053627;28;20480;-65
2020/12/25 00:58:56;;;;;;;10.98;5.05;;;15.50;76.90;;;;;;5053389;28;20430;-67
2020/12/25 01:01:22;;;;;;;10.07;5.10;;;15.50;76.90;;;;;;5052217;28;20021;-65
2020/12/25 01:03:48;;;;;;;11.18;4.72;;;15.50;76.50;;;;;;5053661;28;20032;-66
2020/12/25 01:06:18;;;;;;;9.90;5.10;;;15.50;76.40;;;;;;5053450;28;20100;-66
2020/12/25 01:08:46;;;;;;;11.27;4.30;;;15.50;76.10;;;;;;5052175;28;20025;-67
2020/12/25 01:11:12;;;;;;;10.18;4.20;;;15.50;76.10;;;;;;5068610;22;20044;-73
2020/12/25 01:13:43;;;;;;;9.68;3.45;;;15.50;75.80;;;;;;5053962;28;20493;-70
2020/12/25 01:16:15;;;;;;;10.70;4.15;;;15.50;75.60;;;;;;5053289;28;20087;-70
2020/12/25 01:18:47;;;;;;;9.05;3.65;;;15.50;75.80;;;;;;5053407;28;20020;-71
2020/12/25 01:21:14;;;;;;;9.50;3.43;;;15.50;76.20;;;;;;5033360;28;20117;-72
2020/12/25 01:23:40;;;;;;;8.43;3.03;;;15.50;75.30;;;;;;5033273;28;20025;-71
2020/12/25 01:26:06;;;;;;;7.07;3.15;;;15.50;75.40;;;;;;5033412;28;20358;-71
2020/12/25 01:28:32;;;;;;;10.93;3.13;;;15.50;75.20;;;;;;5015436;28;20028;-74
2020/12/25 01:30:58;;;;;;;12.18;3.38;;;15.40;75.00;;;;;;5033129;28;20425;-70
2020/12/25 01:33:24;;;;;;;7.32;2.45;;;15.40;74.70;;;;;;5033295;28;20063;-70
2020/12/25 01:35:50;;;;;;;6.95;2.35;;;15.40;74.50;;;;;;5033628;28;20029;-71
2020/12/25 01:38:15;;;;;;;12.27;3.15;;;15.40;74.50;;;;;;5033413;28;20041;-71
2020/12/25 01:40:41;;;;;;;8.13;2.53;;;15.30;74.30;;;;;;5033038;28;20029;-72
2020/12/25 01:43:07;;;;;;;10.18;2.55;;;15.30;73.70;;;;;;5033107;28;20057;-69
2020/12/25 01:45:32;;;;;;;9.00;2.60;;;15.30;73.40;;;;;;5032836;28;20017;-73
2020/12/25 01:47:59;;;;;;;7.72;2.08;;;15.20;73.00;;;;;;5033185;28;20517;-73
2020/12/25 01:50:27;;;;;;;8.32;2.15;;;15.30;72.80;;;;;;5032920;28;20482;-70
2020/12/25 01:52:54;;;;;;;10.15;2.30;;;15.20;71.80;;;;;;5033108;28;20025;-71
2020/12/25 01:55:25;;;;;;;8.32;2.30;;;15.20;71.70;;;;;;5033074;28;20025;-69
2020/12/25 01:57:55;;;;;;;10.80;2.50;;;15.20;71.80;;;;;;5032883;28;20554;-69
2020/12/25 02:00:23;;;;;;;6.80;2.20;;;15.20;71.70;;;;;;5032897;28;20027;-68
2020/12/25 02:02:48;;;;;;;7.63;2.05;;;15.20;71.60;;;;;;5015216;28;20475;-69
2020/12/25 02:05:15;;;;;;;9.82;2.20;;;15.20;71.50;;;;;;5032854;28;20017;-71
2020/12/25 02:07:42;;;;;;;22.02;6.88;;;15.10;71.20;;;;;;5032913;28;20112;-70
2020/12/25 02:10:07;;;;;;;17.00;5.43;;;15.10;71.40;;;;;;5032688;28;20045;-70
2020/12/25 02:12:33;;;;;;;9.98;2.30;;;15.10;71.40;;;;;;5032732;28;20034;-70
2020/12/25 02:14:59;;;;;;;6.70;1.50;;;15.10;71.30;;;;;;5032944;28;20021;-68
2020/12/25 02:17:25;;;;;;;13.85;2.85;;;15.10;71.10;;;;;;5032605;28;20517;-70
2020/12/25 02:19:52;;;;;;;14.15;2.25;;;15.00;71.00;;;;;;5032603;28;20033;-69
2020/12/25 02:22:17;;;;;;;7.90;2.22;;;15.00;71.50;;;;;;5032625;28;20025;-70
2020/12/25 02:24:43;;;;;;;10.93;2.38;;;15.00;70.60;;;;;;5033038;28;20101;-70
2020/12/25 02:27:09;;;;;;;15.23;3.22;;;15.00;70.40;;;;;;5033032;28;20025;-69
2020/12/25 02:29:34;;;;;;;13.30;2.70;;;15.00;70.10;;;;;;5033118;28;20025;-70
2020/12/25 02:32:00;;;;;;;16.00;2.70;;;15.00;70.30;;;;;;5035274;28;20040;-70
2020/12/25 02:34:25;;;;;;;13.27;2.67;;;15.00;70.20;;;;;;5036890;28;20034;-69
2020/12/25 02:36:51;;;;;;;12.95;2.35;;;15.00;70.00;;;;;;5036503;28;20060;-72
2020/12/25 02:39:17;;;;;;;10.70;2.45;;;15.00;70.00;;;;;;5036643;28;20045;-72
2020/12/25 02:41:42;;;;;;;15.77;2.45;;;15.00;70.00;;;;;;5036442;28;20381;-71
2020/12/25 02:44:08;;;;;;;12.02;2.58;;;15.00;69.80;;;;;;5036559;28;20037;-72
2020/12/25 02:46:34;;;;;;;11.98;2.35;;;15.00;69.90;;;;;;5036251;28;20491;-72
2020/12/25 02:48:59;;;;;;;14.27;2.88;;;15.00;69.60;;;;;;5036265;28;20022;-73
2020/12/25 02:51:25;;;;;;;17.20;2.83;;;15.00;69.50;;;;;;5036235;28;20396;-72
2020/12/25 02:53:51;;;;;;;12.18;2.70;;;15.00;69.40;;;;;;5036535;28;20037;-73
2020/12/25 02:56:18;;;;;;;14.40;2.95;;;15.00;69.20;;;;;;5036312;28;20068;-72
2020/12/25 02:58:44;;;;;;;14.10;2.60;;;15.00;69.10;;;;;;5036221;28;20025;-72
2020/12/25 03:01:11;;;;;;;13.10;2.72;;;15.00;69.00;;;;;;5036043;28;20034;-73
2020/12/25 03:03:37;;;;;;;11.10;2.28;;;15.00;69.00;;;;;;5036221;28;20022;-73
2020/12/25 03:06:03;;;;;;;15.80;3.25;;;15.00;68.80;;;;;;5018240;28;20057;-73
2020/12/25 03:08:29;;;;;;;17.52;2.80;;;15.00;69.00;;;;;;5035917;28;20056;-72
2020/12/25 03:10:54;;;;;;;15.23;3.15;;;14.90;68.90;;;;;;5035625;28;20118;-71
2020/12/25 03:13:20;;;;;;;17.88;3.33;;;14.90;68.90;;;;;;5018305;28;20029;-72
2020/12/25 03:15:47;;;;;;;12.93;2.72;;;14.90;68.90;;;;;;5035856;28;20603;-73
2020/12/25 03:18:12;;;;;;;19.90;3.10;;;14.90;68.80;;;;;;5035816;28;20026;-72
2020/12/25 03:20:38;;;;;;;13.32;2.97;;;14.90;69.00;;;;;;5035778;28;20028;-72
2020/12/25 03:23:04;;;;;;;15.20;2.42;;;14.90;68.70;;;;;;5035821;28;20053;-73
2020/12/25 03:25:30;;;;;;;10.63;2.40;;;14.90;68.90;;;;;;5035796;28;20025;-73
2020/12/25 03:27:55;;;;;;;26.98;3.67;;;14.90;68.90;;;;;;5034400;28;20490;-71
2020/12/25 03:30:21;;;;;;;11.40;2.30;;;14.80;68.90;;;;;;5017738;28;20033;-72
2020/12/25 03:32:46;;;;;;;15.80;2.53;;;14.80;68.90;;;;;;5035354;28;20470;-72
2020/12/25 03:35:12;;;;;;;15.30;2.63;;;14.80;68.90;;;;;;5035696;28;20033;-73
2020/12/25 03:37:38;;;;;;;14.77;2.83;;;14.80;68.70;;;;;;5040290;28;20500;-72
2020/12/25 03:40:04;;;;;;;15.55;2.72;;;14.90;68.50;;;;;;5040665;28;20514;-71
2020/12/25 03:42:30;;;;;;;17.33;2.90;;;14.90;68.60;;;;;;5040211;28;20056;-71
2020/12/25 03:44:56;;;;;;;15.82;3.08;;;14.90;68.40;;;;;;5043236;28;20033;-72
2020/12/25 03:47:24;;;;;;;14.23;2.72;;;14.90;68.20;;;;;;5041441;28;20022;-73
2020/12/25 03:49:50;;;;;;;19.67;3.25;;;15.00;68.10;;;;;;5040823;28;20542;-73
2020/12/25 03:52:16;;;;;;;36.83;3.08;;;15.00;67.80;;;;;;5038856;28;20513;-72
2020/12/25 03:54:42;;;;;;;32.03;3.80;;;15.00;68.00;;;;;;5035571;28;20025;-73
2020/12/25 03:57:08;;;;;;;21.30;3.83;;;14.90;68.00;;;;;;5035245;28;20037;-71
2020/12/25 03:59:34;;;;;;;18.95;3.50;;;14.80;68.00;;;;;;5034928;28;20076;-72
2020/12/25 04:01:59;;;;;;;20.52;3.28;;;14.80;68.10;;;;;;5035050;28;20124;-72
2020/12/25 04:04:25;;;;;;;18.25;2.90;;;14.80;68.00;;;;;;5017510;28;20114;-71
2020/12/25 04:06:50;;;;;;;23.58;3.65;;;14.80;67.90;;;;;;5035036;28;20528;-73
2020/12/25 04:09:16;;;;;;;15.82;3.03;;;14.80;68.10;;;;;;5034759;28;20109;-74
2020/12/25 04:11:42;;;;;;;18.58;3.30;;;14.80;68.00;;;;;;5034756;28;20499;-72
2020/12/25 04:14:07;;;;;;;16.60;2.58;;;14.90;68.00;;;;;;5034568;28;20036;-72
2020/12/25 04:16:33;;;;;;;19.10;3.60;;;14.90;68.10;;;;;;5034557;28;20033;-72
2020/12/25 04:18:59;;;;;;;16.95;3.28;;;14.90;68.20;;;;;;5034720;28;20106;-72
2020/12/25 04:21:24;;;;;;;17.48;2.97;;;15.00;68.10;;;;;;5034590;28;20025;-73
2020/12/25 04:23:51;;;;;;;23.42;3.95;;;15.00;68.00;;;;;;5034676;28;20036;-71
2020/12/25 04:26:17;;;;;;;25.42;3.85;;;15.00;67.90;;;;;;5034432;28;20075;-72
2020/12/25 04:28:43;;;;;;;20.67;3.13;;;15.00;68.10;;;;;;5034256;28;20033;-74
2020/12/25 04:31:09;;;;;;;25.60;3.25;;;15.00;68.10;;;;;;5016618;28;20017;-74
2020/12/25 04:33:34;;;;;;;16.98;3.05;;;15.00;68.20;;;;;;5034558;28;20029;-72
2020/12/25 04:36:00;;;;;;;21.55;4.00;;;15.00;68.20;;;;;;5034489;28;20029;-74
2020/12/25 04:38:26;;;;;;;26.25;4.15;;;15.00;68.30;;;;;;5034266;28;20375;-73
2020/12/25 04:40:52;;;;;;;23.50;4.15;;;14.90;68.20;;;;;;5016673;28;20435;-73
2020/12/25 04:43:18;;;;;;;22.10;3.63;;;14.90;68.30;;;;;;5034183;28;20049;-73
2020/12/25 04:45:44;;;;;;;22.08;3.90;;;14.90;68.30;;;;;;5033987;28;20021;-73
2020/12/25 04:48:11;;;;;;;23.45;3.47;;;14.90;68.20;;;;;;5016183;28;20021;-73
2020/12/25 04:50:37;;;;;;;16.88;3.30;;;14.90;68.30;;;;;;5033902;28;20032;-73
2020/12/25 04:53:03;;;;;;;17.92;3.30;;;14.80;68.10;;;;;;5016080;28;20017;-74
2020/12/25 04:55:29;;;;;;;25.63;4.65;;;14.80;68.20;;;;;;5032413;28;20112;-72
2020/12/25 04:57:57;;;;;;;18.20;2.83;;;14.90;67.90;;;;;;5034018;28;20467;-74
2020/12/25 05:00:24;;;;;;;19.75;4.13;;;14.90;67.90;;;;;;5033948;28;20021;-71
2020/12/25 05:02:51;;;;;;;19.63;3.55;;;14.90;67.80;;;;;;5034049;28;20036;-72
2020/12/25 05:05:18;;;;;;;17.60;3.40;;;14.90;67.80;;;;;;5033782;28;20030;-72
2020/12/25 05:07:46;;;;;;;23.27;4.07;;;14.90;67.60;;;;;;5033736;28;20021;-71
2020/12/25 05:10:12;;;;;;;22.40;3.85;;;14.90;67.70;;;;;;5033288;28;20034;-74
2020/12/25 05:12:38;;;;;;;19.80;3.20;;;14.90;67.50;;;;;;5033605;28;20112;-72
2020/12/25 05:15:06;;;;;;;22.23;3.90;;;14.80;67.30;;;;;;5033814;28;20025;-73
2020/12/25 05:17:33;;;;;;;23.98;4.72;;;14.70;66.90;;;;;;5033566;28;20036;-73
2020/12/25 05:19:59;;;;;;;21.45;3.38;;;14.70;67.10;;;;;;5033650;28;20032;-71
2020/12/25 05:22:26;;;;;;;22.40;3.58;;;14.70;67.20;;;;;;5033996;28;20171;-74
2020/12/25 05:24:52;;;;;;;16.75;3.97;;;14.60;66.90;;;;;;5033759;28;20036;-73
2020/12/25 05:27:18;;;;;;;19.27;3.25;;;14.70;67.10;;;;;;5033689;28;20025;-73
2020/12/25 05:29:46;;;;;;;18.63;3.05;;;14.60;66.60;;;;;;5033422;28;20049;-73
2020/12/25 05:32:13;;;;;;;23.45;4.22;;;14.70;66.70;;;;;;5033431;28;20032;-71
2020/12/25 05:34:42;;;;;;;19.83;3.92;;;14.60;66.40;;;;;;5033223;28;20049;-75
2020/12/25 05:37:08;;;;;;;26.45;3.40;;;14.60;66.30;;;;;;5033329;28;20482;-73
2020/12/25 05:39:36;;;;;;;32.15;3.83;;;14.70;66.30;;;;;;5033212;28;20080;-73
2020/12/25 05:42:08;;;;;;;14.57;2.97;;;14.70;66.30;;;;;;5033461;28;20057;-74
2020/12/25 05:44:45;;;;;;;24.05;4.18;;;14.70;67.10;;;;;;5034029;28;20021;-73
2020/12/25 05:47:16;;;;;;;16.92;3.60;;;14.70;66.40;;;;;;5033235;28;20025;-72
2020/12/25 05:49:42;;;;;;;20.77;3.67;;;14.70;66.20;;;;;;5033166;28;20095;-72
2020/12/25 05:52:08;;;;;;;21.73;4.20;;;14.70;66.30;;;;;;5033634;28;20414;-72
2020/12/25 05:54:34;;;;;;;22.77;3.33;;;14.70;66.00;;;;;;5033029;28;20036;-70
2020/12/25 05:57:00;;;;;;;23.88;3.47;;;14.70;66.20;;;;;;5032928;28;20395;-73
2020/12/25 05:59:26;;;;;;;20.73;3.60;;;14.70;66.30;;;;;;5032586;28;20460;-72
2020/12/25 06:02:04;;;;;;;13.27;2.92;;;14.70;66.20;;;;;;5033035;28;20021;-71
2020/12/25 06:04:33;;;;;;;28.55;3.58;;;14.70;66.10;;;;;;5015078;28;20029;-73
2020/12/25 06:07:00;;;;;;;17.85;2.88;;;14.80;66.90;;;;;;5037454;28;20437;-75
2020/12/25 06:09:34;;;;;;;25.63;3.67;;;14.80;65.90;;;;;;5018848;28;20367;-72
2020/12/25 06:12:00;;;;;;;;;;;14.90;65.50;;;;;;5037409;28;20048;-71
2020/12/25 06:14:26;;;;;;;19.00;3.30;;;14.90;65.10;;;;;;5036790;28;19916;-72
2020/12/25 06:17:13;;;;;;;21.83;4.32;;;14.80;65.50;;;;;;5037076;28;20041;-69
2020/12/25 06:19:55;;;;;;;26.52;3.25;;;14.80;65.50;;;;;;5037887;28;20482;-70
2020/12/25 06:22:32;;;;;;;28.75;3.85;;;14.80;65.60;;;;;;5036656;28;20103;-71
2020/12/25 06:25:01;;;;;;;22.10;4.13;;;14.80;65.40;;;;;;5018993;28;20036;-74
2020/12/25 06:27:28;;;;;;;20.58;3.63;;;14.70;65.10;;;;;;5036632;28;20018;-71
2020/12/25 06:29:54;;;;;;;21.13;3.30;;;14.70;65.10;;;;;;5036205;28;20025;-69
2020/12/25 06:32:23;;;;;;;21.33;3.55;;;14.70;65.10;;;;;;5036341;28;20041;-71
2020/12/25 06:34:51;;;;;;;16.40;2.85;;;14.70;64.90;;;;;;5036277;28;20104;-71
2020/12/25 06:37:18;;;;;;;20.35;3.67;;;14.70;65.00;;;;;;5036412;28;20044;-73
2020/12/25 06:39:51;;;;;;;19.88;2.95;;;14.70;64.90;;;;;;5036202;28;20021;-72
2020/12/25 06:42:26;;;;;;;20.23;2.97;;;14.70;64.70;;;;;;5018421;28;20087;-74
2020/12/25 06:44:56;;;;;;;19.30;3.25;;;14.80;65.50;;;;;;5036228;28;20029;-72
2020/12/25 06:47:32;;;;;;;22.05;3.45;;;14.70;64.40;;;;;;5018439;28;20029;-72
2020/12/25 06:49:58;;;;;;;18.95;3.17;;;14.70;64.40;;;;;;5036011;28;20104;-70
2020/12/25 06:52:31;;;;;;;17.90;3.25;;;14.70;64.20;;;;;;5036164;28;20100;-71
2020/12/25 06:54:58;;;;;;;18.15;3.20;;;14.80;64.20;;;;;;5035988;28;20486;-73
2020/12/25 06:57:29;;;;;;;18.02;3.10;;;14.80;64.20;;;;;;5035845;28;20047;-73
2020/12/25 07:00:03;;;;;;;23.23;4.07;;;14.70;64.10;;;;;;5018220;28;20100;-72
2020/12/25 07:02:29;;;;;;;18.52;3.83;;;14.70;64.00;;;;;;5035819;28;20022;-72
2020/12/25 07:05:02;;;;;;;22.55;3.97;;;14.70;64.20;;;;;;5035867;28;20076;-72
2020/12/25 07:07:34;;;;;;;20.17;3.22;;;14.70;64.30;;;;;;5035663;28;20032;-71
2020/12/25 07:10:12;;;;;;;21.42;3.58;;;14.70;64.20;;;;;;5018523;28;20509;-70
2020/12/25 07:12:38;;;;;;;17.98;3.17;;;14.80;64.90;;;;;;5035776;28;20026;-73
2020/12/25 07:15:07;;;;;;;18.38;3.58;;;14.70;64.20;;;;;;5035855;28;20070;-72
2020/12/25 07:17:34;;;;;;;21.38;3.78;;;14.80;64.70;;;;;;5035173;28;20470;-72
2020/12/25 07:20:00;;;;;;;22.05;4.32;;;14.90;64.30;;;;;;5035573;28;20080;-71
2020/12/25 07:22:26;;;;;;;19.83;3.55;;;14.90;64.00;;;;;;5035667;28;20037;-71
2020/12/25 07:24:51;;;;;;;18.20;4.15;;;14.90;64.00;;;;;;5035651;28;20022;-72
2020/12/25 07:27:17;;;;;;;16.73;2.92;;;14.90;63.90;;;;;;5035609;28;20037;-73
2020/12/25 07:29:44;;;;;;;13.90;3.88;;;14.90;64.00;;;;;;5035359;28;20027;-74
2020/12/25 07:32:12;;;;;;;23.48;4.40;;;14.90;63.70;;;;;;5035421;28;20021;-69
2020/12/25 07:34:38;;;;;;;23.13;4.57;;;15.00;63.90;;;;;;5035203;28;20516;-70
2020/12/25 07:37:07;;;;;;;19.45;3.92;;;15.00;64.50;;;;;;5035265;28;20038;-72
2020/12/25 07:39:32;;;;;;;25.95;3.78;;;15.00;63.70;;;;;;5034977;28;20030;-71
2020/12/25 07:41:58;;;;;;;19.63;4.22;;;15.00;63.60;;;;;;5035354;28;20048;-71
2020/12/25 07:44:24;;;;;;;24.52;3.70;;;14.90;63.80;;;;;;5035003;28;20382;-70
2020/12/25 07:46:51;;;;;;;17.45;3.45;;;14.90;63.60;;;;;;5035225;28;20363;-71
2020/12/25 07:49:20;;;;;;;18.27;3.00;;;15.00;63.60;;;;;;5035079;28;20026;-72
2020/12/25 07:51:49;;;;;;;25.67;3.53;;;15.00;63.20;;;;;;5035073;28;20384;-72
2020/12/25 07:54:16;;;;;;;20.73;4.05;;;15.10;63.00;;;;;;5035083;28;20017;-71
2020/12/25 07:56:42;;;;;;;17.90;3.60;;;15.20;63.00;;;;;;5034936;28;20044;-74
2020/12/25 07:59:08;;;;;;;21.25;3.45;;;15.20;62.90;;;;;;5034672;28;20496;-73
2020/12/25 08:01:34;;;;;;;20.38;4.60;;;15.20;62.70;;;;;;5034760;28;20112;-72
2020/12/25 08:04:01;;;;;;;18.27;3.88;;;15.30;62.90;;;;;;5034864;28;20017;-72
2020/12/25 08:06:28;;;;;;;16.17;3.13;;;15.30;62.40;;;;;;5034921;28;20494;-72
2020/12/25 08:09:09;;;;;;;17.23;3.40;;;15.30;62.50;;;;;;5034862;28;20060;-73
2020/12/25 08:11:36;;;;;;;15.13;2.88;;;15.30;62.70;;;;;;5034374;28;20514;-73
2020/12/25 08:14:09;;;;;;;18.55;3.17;;;15.40;62.20;;;;;;5034429;28;20072;-73
2020/12/25 08:16:43;;;;;;;19.38;3.55;;;15.40;62.10;;;;;;5034669;28;20116;-72
2020/12/25 08:19:09;;;;;;;26.55;7.53;;;15.40;61.90;;;;;;5034748;28;20060;-71
2020/12/25 08:21:38;;;;;;;24.27;3.40;;;15.40;61.90;;;;;;5035138;28;20057;-73
2020/12/25 08:24:05;;;;;;;23.20;4.05;;;15.40;61.90;;;;;;5035073;28;20041;-72
2020/12/25 08:26:36;;;;;;;16.33;3.78;;;15.40;61.90;;;;;;5034766;28;20546;-73
2020/12/25 08:29:02;;;;;;;19.65;3.95;;;15.50;61.60;;;;;;5034263;28;20429;-72
2020/12/25 08:31:36;;;;;;;22.38;4.15;;;15.50;61.40;;;;;;5034548;28;20030;-72
2020/12/25 08:34:02;;;;;;;;;;;15.60;61.40;;;;;;5035215;28;20071;-73
2020/12/25 08:36:28;;;;;;;20.20;3.35;;;15.60;60.90;;;;;;5034604;28;19967;-73
2020/12/25 08:38:54;;;;;;;17.63;2.75;;;15.60;61.30;;;;;;5034719;28;20029;-72
2020/12/25 08:41:25;;;;;;;20.05;3.60;;;15.80;61.30;;;;;;5034709;28;20026;-73
2020/12/25 08:43:51;;;;;;;13.60;3.30;;;15.80;61.40;;;;;;5034027;28;20028;-73
2020/12/25 08:46:21;;;;;;;17.67;3.70;;;15.80;61.30;;;;;;5034142;28;20025;-72
2020/12/25 08:48:51;;;;;;;23.02;3.50;;;15.80;61.30;;;;;;5034305;28;20208;-73
2020/12/25 08:51:18;;;;;;;18.75;3.67;;;15.90;61.20;;;;;;5034581;28;20032;-73
2020/12/25 08:53:54;;;;;;;18.33;3.05;;;15.90;61.00;;;;;;5034726;28;20478;-72
2020/12/25 08:56:22;;;;;;;15.35;3.22;;;16.00;61.20;;;;;;5034096;28;20033;-73
2020/12/25 08:59:00;;;;;;;19.85;3.28;;;16.00;60.90;;;;;;5034481;28;20079;-69
2020/12/25 09:01:28;;;;;;;21.85;3.30;;;16.10;60.60;;;;;;5034222;28;20022;-70
2020/12/25 09:03:54;;;;;;;21.02;3.55;;;16.10;60.40;;;;;;5016237;28;20505;-70
2020/12/25 09:06:20;;;;;;;19.35;3.00;;;16.10;60.20;;;;;;5033862;28;20022;-71
2020/12/25 09:08:45;;;;;;;16.63;3.70;;;16.10;60.90;;;;;;5033951;28;20025;-70
2020/12/25 09:11:17;;;;;;;14.25;2.70;;;16.10;60.40;;;;;;5033768;28;20478;-72
2020/12/25 09:13:44;;;;;;;16.60;3.25;;;16.00;60.50;;;;;;5033985;28;20040;-72
2020/12/25 09:16:10;;;;;;;16.20;2.78;;;15.90;60.50;;;;;;5033730;28;20493;-73
2020/12/25 09:18:37;;;;;;;14.52;3.03;;;15.90;60.40;;;;;;5033864;28;20423;-72
2020/12/25 09:21:04;;;;;;;15.77;4.00;;;15.90;61.00;;;;;;5033767;28;20064;-73
2020/12/25 09:23:30;;;;;;;21.25;3.92;;;15.90;60.80;;;;;;5034010;28;20140;-73
2020/12/25 09:25:57;;;;;;;16.80;3.17;;;16.00;60.20;;;;;;5033881;28;20033;-70
2020/12/25 09:28:26;;;;;;;13.93;3.55;;;16.10;60.30;;;;;;5033613;28;20352;-73
2020/12/25 09:30:56;;;;;;;12.57;3.00;;;16.20;59.80;;;;;;5033154;28;20037;-70
2020/12/25 09:33:22;;;;;;;17.90;2.65;;;16.10;59.90;;;;;;5015651;28;20029;-73
2020/12/25 09:35:49;;;;;;;17.13;3.22;;;16.20;59.80;;;;;;5033502;28;20045;-73
2020/12/25 09:38:15;;;;;;;23.30;4.43;;;16.20;60.10;;;;;;5033617;28;20028;-71
2020/12/25 09:40:40;;;;;;;18.80;3.42;;;16.30;60.00;;;;;;5032598;28;20025;-73
2020/12/25 09:43:06;;;;;;;16.38;3.33;;;16.30;60.40;;;;;;5033428;28;20026;-71
2020/12/25 09:45:32;;;;;;;21.02;3.20;;;16.30;59.90;;;;;;5033855;28;20032;-72
2020/12/25 09:47:58;;;;;;;16.95;3.53;;;16.40;60.00;;;;;;5033254;28;20021;-74
2020/12/25 09:50:24;;;;;;;12.38;2.85;;;16.40;59.90;;;;;;5033345;28;20352;-75
2020/12/25 09:52:50;;;;;;;20.25;3.50;;;16.40;59.60;;;;;;5033210;28;20031;-74
2020/12/25 09:55:15;;;;;;;16.75;2.58;;;16.40;59.10;;;;;;5033240;28;20118;-71
2020/12/25 09:57:41;;;;;;;14.88;2.95;;;16.30;59.10;;;;;;5033444;28;20037;-72
2020/12/25 10:00:16;;;;;;;21.05;3.22;;;16.30;59.20;;;;;;5032874;28;20352;-73
2020/12/25 10:02:42;;;;;;;14.45;3.10;;;16.30;59.70;;;;;;5033214;28;20064;-74
2020/12/25 10:05:10;;;;;;;18.92;3.30;;;16.40;59.40;;;;;;5032855;28;20498;-73
2020/12/25 10:07:36;;;;;;;19.83;3.33;;;16.40;59.20;;;;;;5033062;28;20108;-72
2020/12/25 10:10:03;;;;;;;17.20;3.30;;;16.40;59.40;;;;;;5032726;28;20049;-75
2020/12/25 10:12:29;;;;;;;19.27;3.08;;;16.40;59.00;;;;;;5015109;28;20025;-72
2020/12/25 10:14:54;;;;;;;15.18;3.22;;;16.40;59.10;;;;;;5032723;28;20071;-71
2020/12/25 10:17:20;;;;;;;12.05;3.25;;;16.30;59.10;;;;;;5032792;28;20130;-73
2020/12/25 10:19:46;;;;;;;15.27;2.72;;;16.30;58.90;;;;;;5032643;28;20053;-72
2020/12/25 10:22:12;;;;;;;18.17;2.97;;;16.30;59.40;;;;;;5033008;28;20091;-73
2020/12/25 10:24:38;;;;;;;21.02;3.42;;;16.20;58.70;;;;;;5033007;28;20021;-74
2020/12/25 10:27:04;;;;;;;18.55;3.47;;;16.20;58.40;;;;;;5032731;28;20386;-74
2020/12/25 10:29:30;;;;;;;17.35;4.50;;;16.20;58.60;;;;;;5032942;28;20514;-74
2020/12/25 10:31:56;;;;;;;16.55;3.25;;;16.20;58.40;;;;;;5032819;28;20021;-73
2020/12/25 10:34:21;;;;;;;14.80;2.78;;;16.20;58.30;;;;;;5032963;28;20569;-72
2020/12/25 10:36:47;;;;;;;13.57;2.78;;;16.20;57.90;;;;;;5032824;28;20033;-75
2020/12/25 10:39:14;;;;;;;20.75;2.95;;;16.20;58.20;;;;;;5032896;28;20029;-72
2020/12/25 10:41:40;;;;;;;12.13;2.75;;;16.30;58.30;;;;;;5015148;28;20025;-74
2020/12/25 10:44:07;;;;;;;20.98;3.42;;;16.30;58.00;;;;;;5032467;28;20485;-76
2020/12/25 10:46:33;;;;;;;15.10;3.40;;;16.30;58.30;;;;;;5032923;28;20026;-75
2020/12/25 10:48:59;;;;;;;16.42;3.30;;;16.40;58.00;;;;;;5032436;28;20555;-74
2020/12/25 10:51:24;;;;;;;17.00;3.30;;;16.30;57.90;;;;;;5033861;28;20025;-73
2020/12/25 10:53:50;;;;;;;17.42;4.25;;;16.30;57.90;;;;;;5036215;28;20103;-72
2020/12/25 10:56:24;;;;;;;14.07;3.28;;;16.30;57.90;;;;;;5036081;28;20100;-73
2020/12/25 10:58:50;;;;;;;;;;;16.20;57.80;;;;;;5036530;28;20033;-71
2020/12/25 11:01:34;;;;;;;15.73;3.83;;;16.20;57.40;;;;;;5035911;28;19905;-73
2020/12/25 11:03:59;;;;;;;20.10;3.90;;;16.20;58.30;;;;;;5036077;28;20101;-73
2020/12/25 11:06:32;;;;;;;18.33;4.57;;;16.30;58.30;;;;;;5035975;28;20204;-72
2020/12/25 11:08:59;;;;;;;18.92;4.07;;;16.30;58.30;;;;;;5035553;28;20018;-71
2020/12/25 11:11:26;;;;;;;19.52;3.60;;;16.30;58.90;;;;;;5017844;28;20490;-72
2020/12/25 11:13:52;;;;;;;15.98;3.50;;;16.30;58.80;;;;;;5035611;28;20044;-72
2020/12/25 11:16:21;;;;;;;16.70;3.05;;;16.30;58.80;;;;;;5035575;28;20466;-71
2020/12/25 11:18:50;;;;;;;21.13;4.78;;;16.20;58.80;;;;;;5035832;28;20041;-73
2020/12/25 11:21:24;;;;;;;18.88;3.42;;;16.20;58.70;;;;;;5035555;28;20255;-71
2020/12/25 11:23:50;;;;;;;21.15;3.85;;;16.10;58.90;;;;;;5035960;28;20021;-73
2020/12/25 11:26:26;;;;;;;17.85;3.40;;;16.10;59.10;;;;;;5035831;28;20029;-71
2020/12/25 11:28:54;;;;;;;16.90;3.60;;;16.20;59.10;;;;;;5036053;28;20025;-74
2020/12/25 11:31:21;;;;;;;14.25;3.30;;;16.20;59.60;;;;;;5035340;28;20132;-72
2020/12/25 11:33:47;;;;;;;19.38;3.25;;;16.20;59.50;;;;;;5035427;28;20616;-70
2020/12/25 11:36:21;;;;;;;11.85;3.08;;;16.30;59.50;;;;;;5034956;28;20037;-71
2020/12/25 11:38:47;;;;;;;11.95;2.38;;;16.30;59.20;;;;;;5035029;28;20053;-72
2020/12/25 11:41:14;;;;;;;16.63;2.88;;;16.40;58.70;;;;;;5034994;28;20029;-72
2020/12/25 11:43:40;;;;;;;14.48;2.85;;;16.30;58.00;;;;;;5035078;28;20025;-73
2020/12/25 11:46:07;;;;;;;11.95;2.85;;;16.30;57.80;;;;;;5035025;28;20025;-72
2020/12/25 11:48:33;;;;;;;16.63;3.95;;;16.30;58.30;;;;;;5035238;28;20029;-71
2020/12/25 11:50:59;;;;;;;18.83;3.15;;;16.30;58.60;;;;;;5034749;28;20422;-71
2020/12/25 11:53:25;;;;;;;18.27;3.42;;;16.50;58.30;;;;;;5033545;28;20140;-72
2020/12/25 11:55:50;;;;;;;19.65;4.43;;;16.80;58.30;;;;;;5034835;28;20193;-70
2020/12/25 11:58:16;;;;;;;13.73;3.30;;;16.80;58.10;;;;;;5034285;28;20390;-70
2020/12/25 12:00:42;;;;;;;15.95;3.28;;;16.90;58.20;;;;;;5034103;28;20092;-71
2020/12/25 12:03:09;;;;;;;16.55;3.55;;;17.00;58.20;;;;;;5033741;28;20037;-72
2020/12/25 12:05:35;;;;;;;13.23;3.28;;;17.10;58.30;;;;;;5034260;28;20028;-70
2020/12/25 12:08:00;;;;;;;13.60;3.08;;;17.00;57.90;;;;;;5034534;28;20033;-71
2020/12/25 12:10:26;;;;;;;18.10;3.35;;;16.90;58.00;;;;;;5016143;28;20046;-70
2020/12/25 12:12:52;;;;;;;13.95;3.30;;;17.00;58.00;;;;;;5034165;28;20033;-70
2020/12/25 12:15:18;;;;;;;15.63;3.40;;;17.10;57.90;;;;;;5034178;28;20092;-70
2020/12/25 12:17:43;;;;;;;16.17;2.85;;;17.20;57.70;;;;;;5034089;28;20033;-70
2020/12/25 12:20:09;;;;;;;17.77;3.22;;;17.20;57.50;;;;;;5034138;28;20099;-72
2020/12/25 12:22:35;;;;;;;16.50;3.60;;;17.20;57.10;;;;;;5034048;28;20060;-70
2020/12/25 12:25:07;;;;;;;15.75;3.72;;;17.10;57.10;;;;;;5034003;28;20032;-69
2020/12/25 12:27:34;;;;;;;15.20;3.75;;;17.10;57.10;;;;;;5034146;28;20471;-70
2020/12/25 12:30:02;;;;;;;9.68;2.83;;;17.00;57.20;;;;;;5033907;28;20055;-69
2020/12/25 12:32:27;;;;;;;13.25;3.08;;;17.00;57.00;;;;;;5034069;28;20474;-70
2020/12/25 12:34:53;;;;;;;18.13;2.92;;;17.00;56.90;;;;;;5034535;28;20032;-70
2020/12/25 12:37:19;;;;;;;19.02;4.05;;;16.80;57.10;;;;;;5034270;28;20108;-71